Latest Weather Observations for Cunderdin Airport

IDW60801

Issued at 6:04 pm WST Thursday 21 September 2017 (issued every 30 minutes, with the page automatically refreshed every 10 minutes)

About weather observations | Map of weather stations | Latest weather observations for WA | Other Formats
Station Details ID: 010286 Name: CUNDERDIN AIRFIELD Lat: -31.62 Lon: 117.22 Height: 216.7 m
Data from the previous 72 hours. | See also: Recent months at Cunderdin Airport
Date/Time
WST
Temp
°C
App
Temp
°C
Dew
Point
°C
Rel
Hum
%
Delta-T
°C
Wind Press
QNH
hPa
Press
MSL
hPa
Rain since
9am
mm
Dir  Spd
km/h
Gust
km/h
Spd
kts
Gust
kts
21/06:00pm 16.2 12.6 12.9 81 1.9 W 24 32 13 17 1006.8 1006.7 1.2
21/05:30pm 16.5 11.7 12.8 79 2.1 W 30 43 16 23 1006.4 1006.3 1.2
21/05:00pm 16.8 11.6 13.3 80 2.0 WNW 33 46 18 25 1006.3 1006.2 1.2
21/04:48pm 16.9 11.2 13.0 78 2.2 WNW 35 54 19 29 1006.2 1006.1 1.2
21/04:30pm 17.1 11.5 13.4 79 2.1 WNW 35 46 19 25 1006.0 1005.9 1.2
21/04:06pm 16.6 11.7 13.7 83 1.7 WNW 32 50 17 27 1005.9 1005.8 1.2
21/04:00pm 16.7 11.8 14.3 86 1.4 WNW 33 46 18 25 1006.0 1005.9 1.2
21/03:41pm 16.1 10.4 14.1 88 1.1 W 37 56 20 30 1006.0 1005.9 1.2
21/03:33pm 16.0 9.5 14.0 88 1.1 W 41 56 22 30 1005.9 1005.8 1.2
21/03:30pm 16.1 9.6 14.1 88 1.1 W 41 54 22 29 1005.9 1005.8 1.2
21/03:27pm 16.0 9.9 14.2 89 1.0 W 39 54 21 29 1005.8 1005.7 1.2
21/03:15pm 16.0 9.8 14.9 93 0.6 W 41 56 22 30 1005.8 1005.7 1.2
21/03:08pm 16.1 10.4 15.1 94 0.6 W 39 57 21 31 1005.7 1005.6 1.2
21/03:00pm 16.3 10.2 15.3 94 0.6 W 41 57 22 31 1005.4 1005.3 0.8
21/02:51pm 17.2 10.0 15.9 92 0.8 W 48 67 26 36 1005.3 1005.2 0.6
21/02:45pm 17.4 9.7 15.6 89 1.1 NW 50 63 27 34 1005.2 1005.1 0.6
21/02:35pm 18.3 10.8 16.1 87 1.3 NNW 50 65 27 35 1004.9 1004.8 0.0
21/02:30pm 19.8 12.2 15.7 77 2.5 N 50 67 27 36 1004.6 1004.5 0.0
21/02:00pm 20.4 13.0 14.1 67 3.7 N 46 65 25 35 1004.8 1004.7 0.0
21/01:30pm 21.1 14.0 14.0 64 4.2 NNW 44 65 24 35 1004.9 1004.8 0.0
21/01:16pm 19.8 13.1 15.0 74 2.8 N 44 72 24 39 1005.0 1004.9 0.0
21/01:08pm 19.4 12.9 15.7 79 2.2 NW 44 72 24 39 1005.2 1005.1 0.0
21/01:00pm 19.1 11.3 15.2 78 2.3 NW 50 72 27 39 1005.3 1005.2 0.0
21/12:51pm 20.4 12.7 14.3 68 3.6 NNW 48 72 26 39 1005.0 1004.9 0.0
21/12:34pm 23.2 15.1 12.2 50 6.3 N 46 65 25 35 1004.8 1004.7 0.0
21/12:30pm 22.5 13.7 12.2 52 5.9 N 50 65 27 35 1004.9 1004.8 0.0
21/12:09pm 23.6 15.5 12.0 48 6.6 N 46 65 25 35 1005.0 1004.9 0.0
21/12:00pm 23.4 14.8 11.8 48 6.6 N 48 65 26 35 1005.2 1005.1 0.0
21/11:35am 22.8 14.7 12.1 51 6.1 N 46 65 25 35 1005.8 1005.7 0.0
21/11:30am 23.4 15.0 12.4 50 6.3 N 48 65 26 35 1005.9 1005.8 0.0
21/11:00am 22.5 14.6 12.7 54 5.7 N 46 67 25 36 1006.3 1006.2 0.0
21/10:31am 21.6 15.9 13.0 58 5.0 NNW 35 54 19 29 1006.5 1006.4 0.0
21/10:30am 21.6 16.0 13.2 59 4.9 NNW 35 48 19 26 1006.5 1006.4 0.0
21/10:25am 21.0 14.8 13.7 63 4.3 NNW 39 56 21 30 1006.6 1006.5 0.0
21/10:00am 20.2 13.5 13.4 65 3.9 N 41 56 22 30 1007.2 1007.1 0.0
21/09:30am 20.6 13.5 13.3 63 4.2 N 43 56 23 30 1007.4 1007.3 0.0
21/09:05am 19.9 14.0 13.6 67 3.6 N 37 56 20 30 1007.7 1007.6 0.0
21/09:00am 19.9 14.1 13.8 68 3.5 N 37 50 20 27 1007.8 1007.7 0.2
21/08:30am 18.8 12.9 13.6 72 3.0 N 37 56 20 30 1008.0 1007.9 0.2
21/08:22am 18.8 12.9 13.6 72 3.0 N 37 56 20 30 1008.1 1008.0 0.2
21/08:00am 18.2 13.8 14.1 77 2.4 N 30 43 16 23 1008.4 1008.3 0.2
21/07:30am 17.4 14.1 14.1 81 1.9 N 24 35 13 19 1008.5 1008.4 0.2
21/07:00am 16.8 14.0 14.4 86 1.4 N 22 32 12 17 1008.7 1008.7 0.2
21/06:30am 16.4 13.6 14.2 87 1.3 N 22 30 12 16 1008.5 1008.4 0.2
21/06:00am 16.5 12.9 14.2 86 1.3 N 26 37 14 20 1008.6 1008.5 0.2
21/05:30am 16.2 12.5 14.0 87 1.3 N 26 35 14 19 1009.0 1009.0 0.2
21/05:14am 16.1 13.0 14.6 91 0.9 N 24 32 13 17 1008.9 1008.9 0.2
21/05:00am 16.0 12.6 14.7 92 0.8 N 26 37 14 20 1008.9 1008.9 0.2
21/04:30am 16.4 13.3 14.4 88 1.2 N 24 35 13 19 1009.0 1009.0 0.2
21/04:22am 16.5 13.4 14.5 88 1.2 N 24 33 13 18 1009.1 1009.1 0.2
21/04:00am 16.7 14.8 14.3 86 1.4 N 17 24 9 13 1009.3 1009.3 0.2
21/03:30am 16.4 14.1 14.2 87 1.3 N 19 26 10 14 1009.7 1009.6 0.2
21/03:00am 16.6 14.2 14.4 87 1.3 N 20 32 11 17 1010.0 1009.9 0.2
21/02:30am 17.0 13.7 14.1 83 1.7 N 24 32 13 17 1010.4 1010.3 0.2
21/02:00am 16.6 14.1 14.2 86 1.4 N 20 30 11 16 1010.6 1010.5 0.2
21/01:30am 16.1 13.6 14.1 88 1.1 N 20 26 11 14 1010.9 1010.8 0.2
21/01:00am 16.5 13.9 13.8 84 1.5 N 20 30 11 16 1011.2 1011.1 0.2
21/12:30am 16.7 14.1 13.8 83 1.7 N 20 30 11 16 1011.6 1011.5 0.2
21/12:00am 17.0 14.4 13.3 79 2.1 N 19 26 10 14 1012.1 1012.0 0.2
 
Date/Time
WST
Temp
°C
App
Temp
°C
Dew
Point
°C
Rel
Hum
%
Delta-T
°C
Wind Press
QNH
hPa
Press
MSL
hPa
Rain since
9am
mm
Dir  Spd
km/h
Gust
km/h
Spd
kts
Gust
kts
20/11:30pm 17.2 14.1 13.3 78 2.2 N 22 30 12 16 1012.3 1012.2 0.2
20/11:00pm 17.0 14.3 12.9 77 2.3 NNW 19 28 10 15 1012.8 1012.8 0.2
20/10:30pm 17.1 14.4 13.0 77 2.3 N 19 24 10 13 1013.1 1013.1 0.2
20/10:00pm 16.3 14.7 12.8 80 2.0 N 13 17 7 9 1013.5 1013.5 0.2
20/09:30pm 16.0 14.8 12.7 81 1.8 NNW 11 15 6 8 1013.7 1013.7 0.2
20/09:00pm 15.5 14.2 12.4 82 1.7 NNW 11 13 6 7 1014.0 1014.0 0.2
20/08:30pm 15.9 14.1 12.1 78 2.1 N 13 15 7 8 1014.0 1014.0 0.2
20/08:00pm 17.6 15.4 12.1 70 3.1 WNW 15 19 8 10 1014.2 1014.2 0.2
20/07:30pm 18.0 15.3 11.8 67 3.4 WNW 17 22 9 12 1014.1 1014.1 0.2
20/07:00pm 17.9 15.8 11.0 64 3.8 WNW 13 17 7 9 1013.9 1013.9 0.2
20/06:30pm 17.9 14.5 10.5 62 4.0 WNW 19 26 10 14 1013.7 1013.7 0.2
20/06:00pm 18.9 16.2 10.2 57 4.7 WNW 15 20 8 11 1013.1 1013.1 0.2
20/05:30pm 20.6 16.8 9.8 50 5.9 WNW 20 28 11 15 1013.0 1013.0 0.2
20/05:00pm 21.1 16.4 9.4 47 6.3 WNW 24 32 13 17 1013.1 1013.1 0.2
20/04:30pm 21.6 15.9 8.5 43 7.0 WNW 28 39 15 21 1013.2 1013.2 0.2
20/04:00pm 21.8 16.1 8.3 42 7.2 W 28 35 15 19 1013.1 1013.1 0.2
20/03:30pm 22.6 17.2 8.0 39 7.7 WNW 26 41 14 22 1013.2 1013.2 0.2
20/03:00pm 22.0 16.6 8.2 41 7.3 WNW 26 35 14 19 1013.3 1013.3 0.2
20/02:30pm 22.4 16.7 8.5 41 7.4 W 28 39 15 21 1013.5 1013.5 0.2
20/02:00pm 21.6 14.9 7.4 40 7.4 W 32 44 17 24 1013.7 1013.7 0.2
20/01:30pm 21.2 14.6 7.8 42 7.0 NW 32 43 17 23 1013.9 1013.9 0.2
20/01:00pm 20.7 15.7 9.6 49 6.0 W 26 33 14 18 1014.0 1014.0 0.2
20/12:30pm 20.4 15.6 10.2 52 5.6 W 26 35 14 19 1014.2 1014.2 0.2
20/12:00pm 19.8 14.3 10.5 55 5.1 W 30 39 16 21 1014.3 1014.3 0.2
20/11:30am 19.6 15.0 10.9 57 4.8 W 26 35 14 19 1014.8 1014.7 0.2
20/11:00am 17.5 12.7 11.5 68 3.3 W 28 41 15 22 1015.1 1015.0 0.2
20/10:30am 18.0 14.2 12.5 70 3.1 WSW 24 33 13 18 1015.1 1015.0 0.2
20/10:00am 18.5 14.7 14.6 78 2.3 W 28 39 15 21 1015.1 1015.0 0.2
20/09:30am 17.2 12.9 14.3 83 1.7 W 30 43 16 23 1015.0 1014.9 0.2
20/09:17am 15.7 11.1 13.4 86 1.3 W 30 43 16 23 1015.0 1014.9 0.2
20/09:06am 16.3 13.5 14.3 88 1.2 W 22 37 12 20 1015.2 1015.1 0.0
20/09:00am 16.4 14.1 14.6 89 1.0 WNW 20 30 11 16 1015.0 1014.9 0.8
20/08:31am 15.8 14.8 14.7 93 0.6 WNW 13 17 7 9 1015.0 1014.9 0.8
20/08:30am 15.7 14.7 14.6 93 0.6 WNW 13 17 7 9 1015.0 1014.9 0.8
20/08:11am 15.5 14.9 14.5 94 0.6 W 11 15 6 8 1014.9 1014.8 0.8
20/08:00am 15.3 15.5 14.7 96 0.3 WSW 7 13 4 7 1014.9 1014.8 0.8
20/07:57am 15.2 15.3 14.4 95 0.5 WSW 7 13 4 7 1014.8 1014.7 0.8
20/07:47am 15.1 15.2 14.5 96 0.3 WSW 7 11 4 6 1014.7 1014.6 0.6
20/07:36am 15.2 15.5 14.6 96 0.3 SW 6 9 3 5 1014.7 1014.6 0.6
20/07:33am 15.2 15.4 14.6 96 0.3 SW 7 9 4 5 1014.7 1014.6 0.6
20/07:32am 15.1 15.2 14.5 96 0.3 SW 7 9 4 5 1014.7 1014.6 0.6
20/07:30am 15.2 15.4 14.6 96 0.3 SW 7 9 4 5 1014.7 1014.6 0.6
20/07:19am 15.1 15.2 14.5 96 0.3 SW 7 9 4 5 1014.6 1014.5 0.6
20/07:16am 15.1 15.3 14.6 97 0.3 SW 7 9 4 5 1014.5 1014.4 0.6
20/07:04am 15.3 15.7 14.8 97 0.3 WSW 6 9 3 5 1014.5 1014.4 0.6
20/07:00am 15.2 15.4 14.7 97 0.3 WSW 7 9 4 5 1014.5 1014.4 0.6
20/06:37am 15.1 14.9 14.8 98 0.2 WNW 9 13 5 7 1014.2 1014.2 0.6
20/06:30am 15.1 14.9 14.6 97 0.3 WNW 9 11 5 6 1014.1 1014.1 0.6
20/06:00am 15.1 14.5 14.6 97 0.3 WNW 11 15 6 8 1013.9 1013.9 0.6
20/05:58am 15.1 14.5 14.6 97 0.3 W 11 15 6 8 1013.9 1013.9 0.6
20/05:41am 15.1 13.7 14.6 97 0.3 W 15 19 8 10 1013.8 1013.8 0.4
20/05:30am 15.2 13.1 14.6 96 0.3 WNW 19 24 10 13 1013.8 1013.8 0.4
20/05:16am 15.3 12.5 14.3 94 0.6 N 22 30 12 16 1013.5 1013.5 0.0
20/05:00am 15.5 13.0 14.0 91 0.9 N 20 26 11 14 1013.4 1013.4 0.0
20/04:54am 15.4 13.4 13.9 91 0.9 N 17 24 9 13 1013.4 1013.4 0.0
20/04:30am 15.1 13.5 13.8 92 0.7 N 15 20 8 11 1013.3 1013.3 0.0
20/04:00am 14.8 12.4 13.8 94 0.6 N 19 22 10 12 1013.2 1013.2 0.0
20/03:30am 14.7 12.2 13.6 93 0.6 NNW 19 26 10 14 1013.2 1013.2 0.0
20/03:00am 14.6 12.9 13.6 94 0.6 N 15 20 8 11 1013.4 1013.4 0.0
20/02:30am 15.1 13.1 14.0 93 0.6 N 17 20 9 11 1013.7 1013.7 0.0
20/02:00am 14.8 13.2 13.8 94 0.6 N 15 20 8 11 1013.8 1013.8 0.0
20/01:30am 14.6 13.0 13.8 95 0.5 N 15 20 8 11 1014.0 1014.0 0.0
20/01:00am 14.5 12.8 13.7 95 0.5 N 15 20 8 11 1014.3 1014.3 0.0
20/12:30am 14.5 14.4 13.9 96 0.3 WNW 7 11 4 6 1014.8 1014.7 0.0
20/12:00am 13.4 13.1 12.8 96 0.3 WSW 6 9 3 5 1015.0 1014.9 0.0
 
Date/Time
WST
Temp
°C
App
Temp
°C
Dew
Point
°C
Rel
Hum
%
Delta-T
°C
Wind Press
QNH
hPa
Press
MSL
hPa
Rain since
9am
mm
Dir  Spd
km/h
Gust
km/h
Spd
kts
Gust
kts
19/11:30pm 13.2 11.9 12.6 96 0.3 N 11 13 6 7 1015.1 1015.0 0.0
19/11:00pm 12.4 10.4 11.6 95 0.4 N 13 15 7 8 1015.4 1015.3 0.0
19/10:30pm 12.3 11.4 11.2 93 0.6 NW 7 9 4 5 1015.6 1015.5 0.0
19/10:00pm 13.1 11.6 11.8 92 0.7 NNW 11 13 6 7 1015.7 1015.6 0.0
19/09:30pm 14.2 12.1 12.4 89 1.0 W 15 17 8 9 1016.1 1016.0 0.0
19/09:00pm 14.1 12.0 12.3 89 1.0 W 15 17 8 9 1015.9 1015.8 0.0
19/08:30pm 14.8 14.2 12.3 85 1.4 W 7 11 4 6 1015.9 1015.8 0.0
19/08:00pm 15.6 14.4 12.7 83 1.6 W 11 13 6 7 1015.9 1015.8 0.0
19/07:30pm 16.3 14.3 12.8 80 2.0 WNW 15 17 8 9 1015.5 1015.4 0.0
19/07:00pm 17.4 15.8 12.9 75 2.5 W 13 17 7 9 1015.4 1015.3 0.0
19/06:30pm 18.8 16.1 13.0 69 3.3 W 19 24 10 13 1015.0 1014.9 0.0
19/06:00pm 19.9 16.8 13.4 66 3.7 WSW 22 30 12 16 1014.7 1014.6 0.0
19/05:30pm 21.3 17.7 13.2 60 4.7 WSW 24 33 13 18 1014.5 1014.4 0.0
19/05:00pm 22.9 18.6 13.1 54 5.7 WSW 28 37 15 20 1014.1 1014.1 0.0
19/04:30pm 24.4 19.7 12.0 46 7.1 WSW 28 39 15 21 1013.8 1013.8 0.0
19/04:00pm 25.7 20.9 11.5 41 8.1 W 28 37 15 20 1013.5 1013.5 0.0
19/03:30pm 26.2 21.8 10.4 37 8.9 W 24 43 13 23 1013.4 1013.4 0.0
19/03:00pm 26.6 21.2 9.5 34 9.5 W 28 35 15 19 1013.5 1013.5 0.0
19/02:30pm 26.8 20.6 7.8 30 10.3 W 30 43 16 23 1013.4 1013.4 0.0
19/02:00pm 27.1 21.5 7.0 28 10.7 W 26 35 14 19 1013.6 1013.6 0.0
19/01:30pm 27.1 22.3 7.5 29 10.6 W 22 39 12 21 1013.7 1013.7 0.0
19/01:00pm 27.1 22.3 7.5 29 10.6 W 22 30 12 16 1014.0 1014.0 0.0
19/12:30pm 26.7 22.4 7.2 29 10.4 W 19 30 10 16 1014.7 1014.6 0.0
19/12:00pm 25.7 21.7 8.2 33 9.5 WNW 19 26 10 14 1015.1 1015.0 0.0
19/11:30am 24.1 20.9 6.8 33 9.1 NW 13 26 7 14 1015.5 1015.4 0.0
19/11:00am 23.2 20.9 7.3 36 8.3 WNW 9 17 5 9 1015.8 1015.7 0.0
19/10:30am 22.1 20.7 8.9 43 7.1 SSW 6 13 3 7 1016.4 1016.3 0.0
19/10:00am 20.7 20.1 9.0 47 6.2 SSW 2 7 1 4 1016.6 1016.6 0.0
19/09:30am 19.3 18.2 10.0 55 5.0 SSW 6 11 3 6 1016.8 1016.8 0.0
19/09:00am 17.3 17.1 9.2 59 4.3 CALM 0 6 0 3 1017.1 1017.1 0.0
19/08:30am 16.0 16.0 9.7 66 3.3 CALM 0 0 0 0 1017.1 1017.1 0.0
19/08:00am 13.5 13.4 9.4 76 2.1 CALM 0 6 0 3 1017.4 1017.4 0.0
19/07:30am 11.2 10.2 8.9 86 1.2 NE 4 6 2 3 1017.4 1017.4 0.0
19/07:00am 8.1 5.7 7.2 94 0.4 NNE 9 9 5 5 1017.1 1017.1 0.0
19/06:30am 5.9 3.4 4.9 93 0.4 NNE 7 9 4 5 1017.1 1017.1 0.0
19/06:00am 5.9 4.0 4.7 92 0.5 ENE 4 7 2 4 1017.1 1017.1 0.0
19/05:30am 6.1 4.9 4.7 91 0.6 CALM 0 0 0 0 1016.7 1016.7 0.0
19/05:00am 7.8 7.0 6.7 93 0.5 CALM 0 0 0 0 1016.6 1016.6 0.0
19/04:30am 6.4 5.3 5.2 92 0.5 CALM 0 6 0 3 1016.7 1016.7 0.0
19/04:00am 6.6 5.1 5.2 91 0.6 NNE 2 7 1 4 1016.5 1016.5 0.0
19/03:30am 6.8 5.4 5.6 92 0.5 N 2 6 1 3 1016.7 1016.7 0.0
19/03:00am 6.9 4.7 5.5 91 0.6 NNE 6 9 3 5 1016.8 1016.8 0.0
19/02:30am 7.4 4.4 6.2 92 0.6 WNW 11 13 6 7 1017.2 1017.2 0.0
19/02:00am 7.6 6.7 6.1 90 0.7 CALM 0 0 0 0 1017.3 1017.3 0.0
19/01:30am 7.6 6.6 5.6 87 0.9 CALM 0 6 0 3 1017.7 1017.7 0.0
19/01:00am 8.5 7.1 7.1 91 0.7 SE 4 9 2 5 1018.0 1018.0 0.0
19/12:30am 8.1 5.6 6.7 91 0.7 E 9 11 5 6 1018.2 1018.2 0.0
19/12:00am 9.1 8.5 7.4 89 0.8 CALM 0 0 0 0 1018.7 1018.7 0.0
 
Date/Time
WST
Temp
°C
App
Temp
°C
Dew
Point
°C
Rel
Hum
%
Delta-T
°C
Wind Press
QNH
hPa
Press
MSL
hPa
Rain since
9am
mm
Dir  Spd
km/h
Gust
km/h
Spd
kts
Gust
kts
18/11:30pm 8.2 7.4 6.3 88 0.9 CALM 0 0 0 0 1018.8 1018.8 0.0
18/11:00pm 9.3 8.5 6.7 84 1.2 CALM 0 0 0 0 1019.1 1019.1 0.0
18/10:30pm 9.6 9.0 7.4 86 1.1 CALM 0 0 0 0 1019.6 1019.5 0.0
18/10:00pm 8.7 7.9 6.7 87 0.9 CALM 0 0 0 0 1019.9 1019.8 0.0
18/09:30pm 11.2 10.6 7.3 77 1.9 CALM 0 0 0 0 1020.4 1020.3 0.0
18/09:00pm 12.3 10.2 8.4 77 1.9 SSW 9 11 5 6 1020.6 1020.6 0.0
18/08:30pm 12.8 12.3 7.9 72 2.4 CALM 0 0 0 0 1020.5 1020.5 0.0
18/08:00pm 13.1 11.5 8.8 75 2.2 NE 7 9 4 5 1020.3 1020.2 0.0
18/07:30pm 13.9 12.4 9.1 73 2.5 NNE 7 9 4 5 1020.2 1020.1 0.0
18/07:00pm 15.7 15.0 8.4 62 3.7 ENE 2 7 1 4 1020.5 1020.5 0.0
18/06:56pm 15.7 15.2 7.7 59 4.0 CALM 0 4 0 2 1020.5 1020.5 0.0
18/06:30pm 20.8 19.0 8.1 44 6.7 S 7 9 4 5 1020.4 1020.3 0.0

Other Formats:

Comma delimited format used in spreadsheet applications
http://www.bom.gov.au/fwo/IDW60801/IDW60801.95625.axf

JavaScript Object Notation format (JSON) in row-major order
http://www.bom.gov.au/fwo/IDW60801/IDW60801.95625.json